sensor_id;sensor_type;location;lat;lon;timestamp;P1;durP1;ratioP1;P2;durP2;ratioP2
30543;SDS011;43388;46.308;4.600;2023-04-08T00:01:23;5.18;;;4.80;;
30543;SDS011;43388;46.308;4.600;2023-04-08T00:03:50;5.43;;;5.03;;
30543;SDS011;43388;46.308;4.600;2023-04-08T00:06:16;5.70;;;5.22;;
30543;SDS011;43388;46.308;4.600;2023-04-08T00:08:42;6.55;;;5.95;;
30543;SDS011;43388;46.308;4.600;2023-04-08T00:11:08;5.80;;;5.32;;
30543;SDS011;43388;46.308;4.600;2023-04-08T00:13:34;6.68;;;5.35;;
30543;SDS011;43388;46.308;4.600;2023-04-08T00:16:00;4.90;;;4.60;;
30543;SDS011;43388;46.308;4.600;2023-04-08T00:18:26;6.00;;;5.45;;
30543;SDS011;43388;46.308;4.600;2023-04-08T00:20:53;6.20;;;5.70;;
30543;SDS011;43388;46.308;4.600;2023-04-08T00:23:21;7.55;;;6.50;;
30543;SDS011;43388;46.308;4.600;2023-04-08T00:25:47;6.30;;;5.80;;
30543;SDS011;43388;46.308;4.600;2023-04-08T00:28:13;7.00;;;6.38;;
30543;SDS011;43388;46.308;4.600;2023-04-08T00:30:39;9.90;;;6.78;;
30543;SDS011;43388;46.308;4.600;2023-04-08T00:33:05;7.60;;;6.90;;
30543;SDS011;43388;46.308;4.600;2023-04-08T00:35:32;6.55;;;5.82;;
30543;SDS011;43388;46.308;4.600;2023-04-08T00:37:58;6.43;;;5.65;;
30543;SDS011;43388;46.308;4.600;2023-04-08T00:40:25;6.07;;;5.40;;
30543;SDS011;43388;46.308;4.600;2023-04-08T00:42:51;5.78;;;5.18;;
30543;SDS011;43388;46.308;4.600;2023-04-08T00:45:17;6.95;;;6.28;;
30543;SDS011;43388;46.308;4.600;2023-04-08T00:47:43;5.72;;;5.28;;
30543;SDS011;43388;46.308;4.600;2023-04-08T00:50:10;6.05;;;5.57;;
30543;SDS011;43388;46.308;4.600;2023-04-08T00:52:36;6.18;;;5.57;;
30543;SDS011;43388;46.308;4.600;2023-04-08T00:55:03;6.63;;;6.07;;
30543;SDS011;43388;46.308;4.600;2023-04-08T00:57:29;6.93;;;6.22;;
30543;SDS011;43388;46.308;4.600;2023-04-08T00:59:55;6.35;;;5.80;;
30543;SDS011;43388;46.308;4.600;2023-04-08T01:05:04;6.68;;;6.05;;
30543;SDS011;43388;46.308;4.600;2023-04-08T01:07:35;7.78;;;6.97;;
30543;SDS011;43388;46.308;4.600;2023-04-08T01:12:45;6.97;;;6.47;;
30543;SDS011;43388;46.308;4.600;2023-04-08T01:15:11;7.63;;;6.95;;
30543;SDS011;43388;46.308;4.600;2023-04-08T01:17:38;7.85;;;6.47;;
30543;SDS011;43388;46.308;4.600;2023-04-08T01:20:05;7.20;;;6.60;;
30543;SDS011;43388;46.308;4.600;2023-04-08T01:22:54;6.28;;;5.65;;
30543;SDS011;43388;46.308;4.600;2023-04-08T01:25:23;6.90;;;5.88;;
30543;SDS011;43388;46.308;4.600;2023-04-08T01:27:50;7.32;;;6.35;;
30543;SDS011;43388;46.308;4.600;2023-04-08T01:30:20;8.25;;;6.68;;
30543;SDS011;43388;46.308;4.600;2023-04-08T01:32:47;9.52;;;7.20;;
30543;SDS011;43388;46.308;4.600;2023-04-08T01:35:14;7.75;;;7.00;;
30543;SDS011;43388;46.308;4.600;2023-04-08T01:37:40;7.32;;;6.72;;
30543;SDS011;43388;46.308;4.600;2023-04-08T01:40:07;7.47;;;6.50;;
30543;SDS011;43388;46.308;4.600;2023-04-08T01:42:33;9.15;;;7.90;;
30543;SDS011;43388;46.308;4.600;2023-04-08T01:45:00;9.68;;;8.68;;
30543;SDS011;43388;46.308;4.600;2023-04-08T01:47:26;8.10;;;7.38;;
30543;SDS011;43388;46.308;4.600;2023-04-08T01:49:53;8.57;;;7.55;;
30543;SDS011;43388;46.308;4.600;2023-04-08T01:52:20;8.45;;;7.15;;
30543;SDS011;43388;46.308;4.600;2023-04-08T01:54:47;7.32;;;6.47;;
30543;SDS011;43388;46.308;4.600;2023-04-08T01:57:14;8.23;;;7.32;;
30543;SDS011;43388;46.308;4.600;2023-04-08T01:59:42;9.30;;;6.50;;
30543;SDS011;43388;46.308;4.600;2023-04-08T02:02:08;5.68;;;5.18;;
30543;SDS011;43388;46.308;4.600;2023-04-08T02:04:35;6.50;;;5.85;;
30543;SDS011;43388;46.308;4.600;2023-04-08T02:07:01;6.82;;;6.10;;
30543;SDS011;43388;46.308;4.600;2023-04-08T02:09:27;5.82;;;5.35;;
30543;SDS011;43388;46.308;4.600;2023-04-08T02:11:53;7.68;;;6.47;;
30543;SDS011;43388;46.308;4.600;2023-04-08T02:14:20;7.25;;;6.55;;
30543;SDS011;43388;46.308;4.600;2023-04-08T02:17:00;7.72;;;6.60;;
30543;SDS011;43388;46.308;4.600;2023-04-08T02:19:31;8.32;;;6.10;;
30543;SDS011;43388;46.308;4.600;2023-04-08T02:22:16;6.15;;;5.55;;
30543;SDS011;43388;46.308;4.600;2023-04-08T02:24:44;9.27;;;6.13;;
30543;SDS011;43388;46.308;4.600;2023-04-08T02:27:11;7.47;;;6.65;;
30543;SDS011;43388;46.308;4.600;2023-04-08T02:29:37;6.90;;;6.20;;
30543;SDS011;43388;46.308;4.600;2023-04-08T02:32:04;6.57;;;6.07;;
30543;SDS011;43388;46.308;4.600;2023-04-08T02:34:31;7.05;;;6.35;;
30543;SDS011;43388;46.308;4.600;2023-04-08T02:36:57;7.05;;;6.45;;
30543;SDS011;43388;46.308;4.600;2023-04-08T02:39:30;7.40;;;6.57;;
30543;SDS011;43388;46.308;4.600;2023-04-08T02:41:56;7.53;;;6.53;;
30543;SDS011;43388;46.308;4.600;2023-04-08T02:44:22;6.70;;;6.00;;
30543;SDS011;43388;46.308;4.600;2023-04-08T02:46:48;7.03;;;6.32;;
30543;SDS011;43388;46.308;4.600;2023-04-08T02:49:14;7.30;;;6.60;;
30543;SDS011;43388;46.308;4.600;2023-04-08T02:51:40;7.22;;;6.45;;
30543;SDS011;43388;46.308;4.600;2023-04-08T02:54:06;8.38;;;6.85;;
30543;SDS011;43388;46.308;4.600;2023-04-08T02:56:32;8.00;;;5.88;;
30543;SDS011;43388;46.308;4.600;2023-04-08T02:58:58;6.57;;;6.00;;
30543;SDS011;43388;46.308;4.600;2023-04-08T03:01:24;6.80;;;6.20;;
30543;SDS011;43388;46.308;4.600;2023-04-08T03:03:50;7.45;;;6.05;;
30543;SDS011;43388;46.308;4.600;2023-04-08T03:06:17;6.85;;;6.20;;
30543;SDS011;43388;46.308;4.600;2023-04-08T03:08:43;6.28;;;5.75;;
30543;SDS011;43388;46.308;4.600;2023-04-08T03:11:09;6.95;;;6.22;;
30543;SDS011;43388;46.308;4.600;2023-04-08T03:13:35;7.20;;;6.45;;
30543;SDS011;43388;46.308;4.600;2023-04-08T03:16:01;7.05;;;6.45;;
30543;SDS011;43388;46.308;4.600;2023-04-08T03:18:27;7.38;;;6.55;;
30543;SDS011;43388;46.308;4.600;2023-04-08T03:20:53;7.35;;;6.57;;
30543;SDS011;43388;46.308;4.600;2023-04-08T03:23:19;7.65;;;6.95;;
30543;SDS011;43388;46.308;4.600;2023-04-08T03:25:45;7.25;;;6.55;;
30543;SDS011;43388;46.308;4.600;2023-04-08T03:28:11;7.78;;;7.05;;
30543;SDS011;43388;46.308;4.600;2023-04-08T03:30:37;7.15;;;6.22;;
30543;SDS011;43388;46.308;4.600;2023-04-08T03:33:03;9.05;;;7.13;;
30543;SDS011;43388;46.308;4.600;2023-04-08T03:35:32;7.78;;;7.07;;
30543;SDS011;43388;46.308;4.600;2023-04-08T03:37:58;8.95;;;8.25;;
30543;SDS011;43388;46.308;4.600;2023-04-08T03:40:24;8.60;;;7.80;;
30543;SDS011;43388;46.308;4.600;2023-04-08T03:42:50;9.50;;;8.60;;
30543;SDS011;43388;46.308;4.600;2023-04-08T03:45:16;11.27;;;8.98;;
30543;SDS011;43388;46.308;4.600;2023-04-08T03:47:42;9.43;;;8.02;;
30543;SDS011;43388;46.308;4.600;2023-04-08T03:50:08;9.18;;;7.65;;
30543;SDS011;43388;46.308;4.600;2023-04-08T03:52:34;9.48;;;8.57;;
30543;SDS011;43388;46.308;4.600;2023-04-08T03:55:00;10.23;;;8.68;;
30543;SDS011;43388;46.308;4.600;2023-04-08T03:57:26;9.88;;;9.05;;
30543;SDS011;43388;46.308;4.600;2023-04-08T03:59:52;9.85;;;8.95;;
30543;SDS011;43388;46.308;4.600;2023-04-08T04:02:18;10.20;;;9.20;;
30543;SDS011;43388;46.308;4.600;2023-04-08T04:04:44;11.15;;;10.15;;
30543;SDS011;43388;46.308;4.600;2023-04-08T04:07:10;10.80;;;9.50;;
30543;SDS011;43388;46.308;4.600;2023-04-08T04:09:36;10.18;;;9.15;;
30543;SDS011;43388;46.308;4.600;2023-04-08T04:12:02;9.73;;;8.73;;
30543;SDS011;43388;46.308;4.600;2023-04-08T04:14:28;10.52;;;9.52;;
30543;SDS011;43388;46.308;4.600;2023-04-08T04:16:54;10.82;;;9.68;;
30543;SDS011;43388;46.308;4.600;2023-04-08T04:19:20;9.90;;;8.57;;
30543;SDS011;43388;46.308;4.600;2023-04-08T04:21:46;15.63;;;9.18;;
30543;SDS011;43388;46.308;4.600;2023-04-08T04:24:12;11.07;;;9.55;;
30543;SDS011;43388;46.308;4.600;2023-04-08T04:26:39;10.48;;;8.50;;
30543;SDS011;43388;46.308;4.600;2023-04-08T04:29:05;9.65;;;8.75;;
30543;SDS011;43388;46.308;4.600;2023-04-08T04:31:31;11.07;;;9.45;;
30543;SDS011;43388;46.308;4.600;2023-04-08T04:33:57;11.45;;;9.10;;
30543;SDS011;43388;46.308;4.600;2023-04-08T04:36:23;11.23;;;7.70;;
30543;SDS011;43388;46.308;4.600;2023-04-08T04:38:50;9.93;;;8.63;;
30543;SDS011;43388;46.308;4.600;2023-04-08T04:41:16;10.00;;;9.10;;
30543;SDS011;43388;46.308;4.600;2023-04-08T04:43:42;10.02;;;9.02;;
30543;SDS011;43388;46.308;4.600;2023-04-08T04:46:08;8.98;;;8.15;;
30543;SDS011;43388;46.308;4.600;2023-04-08T04:48:34;9.55;;;8.65;;
30543;SDS011;43388;46.308;4.600;2023-04-08T04:51:01;9.50;;;8.68;;
30543;SDS011;43388;46.308;4.600;2023-04-08T04:53:27;8.73;;;8.00;;
30543;SDS011;43388;46.308;4.600;2023-04-08T04:55:53;9.98;;;8.32;;
30543;SDS011;43388;46.308;4.600;2023-04-08T04:58:19;9.60;;;8.52;;
30543;SDS011;43388;46.308;4.600;2023-04-08T05:00:45;9.95;;;8.95;;
30543;SDS011;43388;46.308;4.600;2023-04-08T05:03:12;9.68;;;8.88;;
30543;SDS011;43388;46.308;4.600;2023-04-08T05:05:38;8.52;;;7.72;;
30543;SDS011;43388;46.308;4.600;2023-04-08T05:08:04;9.55;;;8.65;;
30543;SDS011;43388;46.308;4.600;2023-04-08T05:10:31;10.07;;;9.05;;
30543;SDS011;43388;46.308;4.600;2023-04-08T05:12:57;9.13;;;8.30;;
30543;SDS011;43388;46.308;4.600;2023-04-08T05:15:23;10.40;;;9.40;;
30543;SDS011;43388;46.308;4.600;2023-04-08T05:17:49;12.45;;;10.13;;
30543;SDS011;43388;46.308;4.600;2023-04-08T05:20:15;9.90;;;9.07;;
30543;SDS011;43388;46.308;4.600;2023-04-08T05:22:41;10.68;;;9.68;;
30543;SDS011;43388;46.308;4.600;2023-04-08T05:25:09;9.88;;;9.00;;
30543;SDS011;43388;46.308;4.600;2023-04-08T05:27:35;9.85;;;8.35;;
30543;SDS011;43388;46.308;4.600;2023-04-08T05:30:02;12.23;;;9.85;;
30543;SDS011;43388;46.308;4.600;2023-04-08T05:32:28;13.20;;;9.77;;
30543;SDS011;43388;46.308;4.600;2023-04-08T05:34:54;11.20;;;10.18;;
30543;SDS011;43388;46.308;4.600;2023-04-08T05:37:20;13.10;;;10.30;;
30543;SDS011;43388;46.308;4.600;2023-04-08T05:39:46;11.20;;;9.95;;
30543;SDS011;43388;46.308;4.600;2023-04-08T05:42:12;14.57;;;11.93;;
30543;SDS011;43388;46.308;4.600;2023-04-08T05:44:38;11.85;;;10.75;;
30543;SDS011;43388;46.308;4.600;2023-04-08T05:47:08;12.57;;;10.52;;
30543;SDS011;43388;46.308;4.600;2023-04-08T05:49:34;13.60;;;11.50;;
30543;SDS011;43388;46.308;4.600;2023-04-08T05:52:00;14.23;;;11.30;;
30543;SDS011;43388;46.308;4.600;2023-04-08T05:54:27;14.40;;;12.23;;
30543;SDS011;43388;46.308;4.600;2023-04-08T05:56:53;14.00;;;10.98;;
30543;SDS011;43388;46.308;4.600;2023-04-08T05:59:19;13.38;;;11.98;;
30543;SDS011;43388;46.308;4.600;2023-04-08T06:01:45;13.23;;;11.90;;
30543;SDS011;43388;46.308;4.600;2023-04-08T06:04:11;13.10;;;11.70;;
30543;SDS011;43388;46.308;4.600;2023-04-08T06:06:37;12.18;;;11.00;;
30543;SDS011;43388;46.308;4.600;2023-04-08T06:09:04;15.70;;;12.98;;
30543;SDS011;43388;46.308;4.600;2023-04-08T06:11:30;13.77;;;10.98;;
30543;SDS011;43388;46.308;4.600;2023-04-08T06:13:56;11.82;;;10.63;;
30543;SDS011;43388;46.308;4.600;2023-04-08T06:16:22;15.38;;;12.18;;
30543;SDS011;43388;46.308;4.600;2023-04-08T06:18:48;12.40;;;11.18;;
30543;SDS011;43388;46.308;4.600;2023-04-08T06:21:14;11.88;;;10.70;;
30543;SDS011;43388;46.308;4.600;2023-04-08T06:23:40;12.55;;;11.30;;
30543;SDS011;43388;46.308;4.600;2023-04-08T06:26:06;13.05;;;11.75;;
30543;SDS011;43388;46.308;4.600;2023-04-08T06:28:32;13.18;;;10.38;;
30543;SDS011;43388;46.308;4.600;2023-04-08T06:30:58;12.00;;;10.82;;
30543;SDS011;43388;46.308;4.600;2023-04-08T06:33:25;11.98;;;10.63;;
30543;SDS011;43388;46.308;4.600;2023-04-08T06:35:51;11.63;;;10.45;;
30543;SDS011;43388;46.308;4.600;2023-04-08T06:38:17;11.35;;;10.23;;
30543;SDS011;43388;46.308;4.600;2023-04-08T06:40:43;11.40;;;10.00;;
30543;SDS011;43388;46.308;4.600;2023-04-08T06:43:09;10.98;;;9.88;;
30543;SDS011;43388;46.308;4.600;2023-04-08T06:45:35;9.50;;;8.50;;
30543;SDS011;43388;46.308;4.600;2023-04-08T06:48:01;10.82;;;9.68;;
30543;SDS011;43388;46.308;4.600;2023-04-08T06:50:27;34.40;;;30.67;;
30543;SDS011;43388;46.308;4.600;2023-04-08T06:52:53;15.70;;;14.25;;
30543;SDS011;43388;46.308;4.600;2023-04-08T06:55:19;12.93;;;11.27;;
30543;SDS011;43388;46.308;4.600;2023-04-08T06:57:45;11.07;;;9.55;;
30543;SDS011;43388;46.308;4.600;2023-04-08T07:00:11;12.52;;;9.40;;
30543;SDS011;43388;46.308;4.600;2023-04-08T07:02:37;12.85;;;10.77;;
30543;SDS011;43388;46.308;4.600;2023-04-08T07:05:03;12.07;;;10.85;;
30543;SDS011;43388;46.308;4.600;2023-04-08T07:07:29;14.57;;;13.00;;
30543;SDS011;43388;46.308;4.600;2023-04-08T07:09:56;15.18;;;12.93;;
30543;SDS011;43388;46.308;4.600;2023-04-08T07:12:22;12.43;;;11.07;;
30543;SDS011;43388;46.308;4.600;2023-04-08T07:14:48;13.48;;;11.27;;
30543;SDS011;43388;46.308;4.600;2023-04-08T07:17:14;11.10;;;10.02;;
30543;SDS011;43388;46.308;4.600;2023-04-08T07:19:40;13.00;;;11.38;;
30543;SDS011;43388;46.308;4.600;2023-04-08T07:22:08;13.68;;;11.43;;
30543;SDS011;43388;46.308;4.600;2023-04-08T07:24:34;14.32;;;12.70;;
30543;SDS011;43388;46.308;4.600;2023-04-08T07:27:00;12.85;;;11.55;;
30543;SDS011;43388;46.308;4.600;2023-04-08T07:29:26;12.75;;;10.90;;
30543;SDS011;43388;46.308;4.600;2023-04-08T07:31:52;12.95;;;11.68;;
30543;SDS011;43388;46.308;4.600;2023-04-08T07:34:18;12.05;;;10.77;;
30543;SDS011;43388;46.308;4.600;2023-04-08T07:36:44;13.30;;;11.13;;
30543;SDS011;43388;46.308;4.600;2023-04-08T07:39:10;11.52;;;10.05;;
30543;SDS011;43388;46.308;4.600;2023-04-08T07:41:36;10.23;;;9.23;;
30543;SDS011;43388;46.308;4.600;2023-04-08T07:44:02;24.75;;;22.65;;
30543;SDS011;43388;46.308;4.600;2023-04-08T07:46:28;25.80;;;23.13;;
30543;SDS011;43388;46.308;4.600;2023-04-08T07:48:55;13.23;;;11.73;;
30543;SDS011;43388;46.308;4.600;2023-04-08T07:51:22;12.00;;;10.80;;
30543;SDS011;43388;46.308;4.600;2023-04-08T07:53:48;16.45;;;13.63;;
30543;SDS011;43388;46.308;4.600;2023-04-08T07:56:14;14.65;;;13.15;;
30543;SDS011;43388;46.308;4.600;2023-04-08T07:58:42;13.48;;;12.05;;
30543;SDS011;43388;46.308;4.600;2023-04-08T08:01:15;11.68;;;10.43;;
30543;SDS011;43388;46.308;4.600;2023-04-08T08:03:42;12.55;;;10.15;;
30543;SDS011;43388;46.308;4.600;2023-04-08T08:06:10;13.07;;;10.90;;
30543;SDS011;43388;46.308;4.600;2023-04-08T08:08:36;11.55;;;9.88;;
30543;SDS011;43388;46.308;4.600;2023-04-08T08:11:02;13.48;;;11.55;;
30543;SDS011;43388;46.308;4.600;2023-04-08T08:13:28;11.73;;;10.52;;
30543;SDS011;43388;46.308;4.600;2023-04-08T08:15:54;15.15;;;13.60;;
30543;SDS011;43388;46.308;4.600;2023-04-08T08:18:21;13.38;;;11.98;;
30543;SDS011;43388;46.308;4.600;2023-04-08T08:20:47;13.15;;;11.82;;
30543;SDS011;43388;46.308;4.600;2023-04-08T08:23:13;18.77;;;16.88;;
30543;SDS011;43388;46.308;4.600;2023-04-08T08:25:39;14.48;;;13.07;;
30543;SDS011;43388;46.308;4.600;2023-04-08T08:28:05;14.07;;;12.80;;
30543;SDS011;43388;46.308;4.600;2023-04-08T08:30:31;13.02;;;11.70;;
30543;SDS011;43388;46.308;4.600;2023-04-08T08:32:57;12.82;;;11.52;;
30543;SDS011;43388;46.308;4.600;2023-04-08T08:35:24;13.80;;;12.38;;
30543;SDS011;43388;46.308;4.600;2023-04-08T08:37:50;13.25;;;12.00;;
30543;SDS011;43388;46.308;4.600;2023-04-08T08:40:16;12.57;;;10.55;;
30543;SDS011;43388;46.308;4.600;2023-04-08T08:42:51;12.93;;;11.20;;
30543;SDS011;43388;46.308;4.600;2023-04-08T08:45:18;13.20;;;10.00;;
30543;SDS011;43388;46.308;4.600;2023-04-08T08:47:45;11.73;;;10.73;;
30543;SDS011;43388;46.308;4.600;2023-04-08T08:50:11;11.38;;;10.20;;
30543;SDS011;43388;46.308;4.600;2023-04-08T08:52:37;11.90;;;10.35;;
30543;SDS011;43388;46.308;4.600;2023-04-08T08:55:03;11.90;;;10.70;;
30543;SDS011;43388;46.308;4.600;2023-04-08T08:57:29;12.05;;;9.48;;
30543;SDS011;43388;46.308;4.600;2023-04-08T08:59:55;10.75;;;9.75;;
30543;SDS011;43388;46.308;4.600;2023-04-08T09:02:23;13.25;;;10.98;;
30543;SDS011;43388;46.308;4.600;2023-04-08T09:04:57;11.52;;;9.88;;
30543;SDS011;43388;46.308;4.600;2023-04-08T09:07:24;12.13;;;9.70;;
30543;SDS011;43388;46.308;4.600;2023-04-08T09:09:51;12.10;;;10.32;;
30543;SDS011;43388;46.308;4.600;2023-04-08T09:12:17;11.18;;;10.10;;
30543;SDS011;43388;46.308;4.600;2023-04-08T09:14:43;13.35;;;11.70;;
30543;SDS011;43388;46.308;4.600;2023-04-08T09:17:09;11.45;;;9.80;;
30543;SDS011;43388;46.308;4.600;2023-04-08T09:19:35;11.77;;;9.85;;
30543;SDS011;43388;46.308;4.600;2023-04-08T09:22:08;10.68;;;9.57;;
30543;SDS011;43388;46.308;4.600;2023-04-08T09:24:35;11.13;;;9.10;;
30543;SDS011;43388;46.308;4.600;2023-04-08T09:27:02;10.50;;;9.23;;
30543;SDS011;43388;46.308;4.600;2023-04-08T09:29:28;12.68;;;9.90;;
30543;SDS011;43388;46.308;4.600;2023-04-08T09:31:55;10.27;;;9.27;;
30543;SDS011;43388;46.308;4.600;2023-04-08T09:34:21;10.02;;;8.98;;
30543;SDS011;43388;46.308;4.600;2023-04-08T09:36:47;11.18;;;9.40;;
30543;SDS011;43388;46.308;4.600;2023-04-08T09:39:14;9.30;;;8.32;;
30543;SDS011;43388;46.308;4.600;2023-04-08T09:41:40;9.63;;;8.30;;
30543;SDS011;43388;46.308;4.600;2023-04-08T09:44:07;10.48;;;9.38;;
30543;SDS011;43388;46.308;4.600;2023-04-08T09:49:09;8.95;;;7.88;;
30543;SDS011;43388;46.308;4.600;2023-04-08T09:51:37;9.98;;;8.98;;
30543;SDS011;43388;46.308;4.600;2023-04-08T09:54:05;10.63;;;8.75;;
30543;SDS011;43388;46.308;4.600;2023-04-08T09:56:38;8.75;;;8.00;;
30543;SDS011;43388;46.308;4.600;2023-04-08T09:59:13;9.10;;;8.23;;
30543;SDS011;43388;46.308;4.600;2023-04-08T10:01:49;11.45;;;8.07;;
30543;SDS011;43388;46.308;4.600;2023-04-08T10:04:17;10.40;;;9.00;;
30543;SDS011;43388;46.308;4.600;2023-04-08T10:06:45;9.07;;;8.18;;
30543;SDS011;43388;46.308;4.600;2023-04-08T10:09:15;7.70;;;7.05;;
30543;SDS011;43388;46.308;4.600;2023-04-08T10:11:41;8.05;;;7.35;;
30543;SDS011;43388;46.308;4.600;2023-04-08T10:14:08;9.95;;;8.07;;
30543;SDS011;43388;46.308;4.600;2023-04-08T10:16:35;10.38;;;7.25;;
30543;SDS011;43388;46.308;4.600;2023-04-08T10:19:02;8.10;;;7.15;;
30543;SDS011;43388;46.308;4.600;2023-04-08T10:21:48;7.97;;;7.35;;
30543;SDS011;43388;46.308;4.600;2023-04-08T10:24:14;8.10;;;6.88;;
30543;SDS011;43388;46.308;4.600;2023-04-08T10:26:43;9.18;;;8.05;;
30543;SDS011;43388;46.308;4.600;2023-04-08T10:31:45;8.55;;;6.38;;
30543;SDS011;43388;46.308;4.600;2023-04-08T10:34:15;8.38;;;5.93;;
30543;SDS011;43388;46.308;4.600;2023-04-08T10:36:42;6.60;;;5.65;;
30543;SDS011;43388;46.308;4.600;2023-04-08T10:39:08;6.10;;;5.55;;
30543;SDS011;43388;46.308;4.600;2023-04-08T10:41:34;8.15;;;6.82;;
30543;SDS011;43388;46.308;4.600;2023-04-08T10:44:03;7.30;;;6.35;;
30543;SDS011;43388;46.308;4.600;2023-04-08T10:46:36;5.97;;;5.45;;
30543;SDS011;43388;46.308;4.600;2023-04-08T10:49:02;6.55;;;5.95;;
30543;SDS011;43388;46.308;4.600;2023-04-08T10:51:31;6.30;;;5.70;;
30543;SDS011;43388;46.308;4.600;2023-04-08T10:54:05;10.63;;;5.75;;
30543;SDS011;43388;46.308;4.600;2023-04-08T10:56:31;12.82;;;5.70;;
30543;SDS011;43388;46.308;4.600;2023-04-08T10:58:58;7.15;;;5.50;;
30543;SDS011;43388;46.308;4.600;2023-04-08T11:01:24;5.55;;;5.05;;
30543;SDS011;43388;46.308;4.600;2023-04-08T11:03:51;5.75;;;5.25;;
30543;SDS011;43388;46.308;4.600;2023-04-08T11:06:17;7.03;;;4.90;;
30543;SDS011;43388;46.308;4.600;2023-04-08T11:08:43;5.35;;;4.85;;
30543;SDS011;43388;46.308;4.600;2023-04-08T11:11:10;5.40;;;4.90;;
30543;SDS011;43388;46.308;4.600;2023-04-08T11:13:40;6.75;;;4.65;;
30543;SDS011;43388;46.308;4.600;2023-04-08T11:16:06;4.68;;;4.28;;
30543;SDS011;43388;46.308;4.600;2023-04-08T11:18:33;4.93;;;4.32;;
30543;SDS011;43388;46.308;4.600;2023-04-08T11:20:59;4.57;;;4.18;;
30543;SDS011;43388;46.308;4.600;2023-04-08T11:23:26;3.55;;;3.25;;
30543;SDS011;43388;46.308;4.600;2023-04-08T11:25:52;4.55;;;3.75;;
30543;SDS011;43388;46.308;4.600;2023-04-08T11:28:18;3.75;;;3.53;;
30543;SDS011;43388;46.308;4.600;2023-04-08T11:30:45;3.83;;;3.53;;
30543;SDS011;43388;46.308;4.600;2023-04-08T11:33:12;3.80;;;3.60;;
30543;SDS011;43388;46.308;4.600;2023-04-08T11:35:41;17.55;;;15.60;;
30543;SDS011;43388;46.308;4.600;2023-04-08T11:38:08;5.72;;;5.18;;
30543;SDS011;43388;46.308;4.600;2023-04-08T11:40:34;3.92;;;3.63;;
30543;SDS011;43388;46.308;4.600;2023-04-08T11:43:10;3.50;;;3.30;;
30543;SDS011;43388;46.308;4.600;2023-04-08T11:45:37;5.10;;;4.55;;
30543;SDS011;43388;46.308;4.600;2023-04-08T11:50:35;4.30;;;3.90;;
30543;SDS011;43388;46.308;4.600;2023-04-08T11:53:01;4.10;;;3.70;;
30543;SDS011;43388;46.308;4.600;2023-04-08T11:55:31;3.38;;;3.17;;
30543;SDS011;43388;46.308;4.600;2023-04-08T11:58:01;3.72;;;3.35;;
30543;SDS011;43388;46.308;4.600;2023-04-08T12:00:27;3.70;;;3.40;;
30543;SDS011;43388;46.308;4.600;2023-04-08T12:02:53;3.92;;;3.45;;
30543;SDS011;43388;46.308;4.600;2023-04-08T12:05:19;3.70;;;3.42;;
30543;SDS011;43388;46.308;4.600;2023-04-08T12:07:46;3.50;;;3.17;;
30543;SDS011;43388;46.308;4.600;2023-04-08T12:10:12;3.92;;;3.60;;
30543;SDS011;43388;46.308;4.600;2023-04-08T12:12:38;4.15;;;3.70;;
30543;SDS011;43388;46.308;4.600;2023-04-08T12:15:05;3.70;;;3.28;;
30543;SDS011;43388;46.308;4.600;2023-04-08T12:17:35;3.63;;;3.33;;
30543;SDS011;43388;46.308;4.600;2023-04-08T12:20:02;6.15;;;4.20;;
30543;SDS011;43388;46.308;4.600;2023-04-08T12:22:29;4.03;;;3.67;;
30543;SDS011;43388;46.308;4.600;2023-04-08T12:24:55;4.15;;;3.63;;
30543;SDS011;43388;46.308;4.600;2023-04-08T12:27:21;4.20;;;3.80;;
30543;SDS011;43388;46.308;4.600;2023-04-08T12:29:47;4.10;;;3.80;;
30543;SDS011;43388;46.308;4.600;2023-04-08T12:32:14;5.07;;;2.92;;
30543;SDS011;43388;46.308;4.600;2023-04-08T12:34:40;4.28;;;3.30;;
30543;SDS011;43388;46.308;4.600;2023-04-08T12:37:06;3.60;;;3.30;;
30543;SDS011;43388;46.308;4.600;2023-04-08T12:39:32;3.75;;;3.45;;
30543;SDS011;43388;46.308;4.600;2023-04-08T12:41:58;2.90;;;2.67;;
30543;SDS011;43388;46.308;4.600;2023-04-08T12:44:24;4.22;;;3.45;;
30543;SDS011;43388;46.308;4.600;2023-04-08T12:46:50;3.42;;;3.13;;
30543;SDS011;43388;46.308;4.600;2023-04-08T12:49:16;5.65;;;3.47;;
30543;SDS011;43388;46.308;4.600;2023-04-08T12:51:42;4.95;;;3.10;;
30543;SDS011;43388;46.308;4.600;2023-04-08T12:54:08;3.30;;;3.10;;
30543;SDS011;43388;46.308;4.600;2023-04-08T12:56:34;3.45;;;2.75;;
30543;SDS011;43388;46.308;4.600;2023-04-08T12:59:00;3.53;;;3.30;;
30543;SDS011;43388;46.308;4.600;2023-04-08T13:01:26;4.18;;;3.25;;
30543;SDS011;43388;46.308;4.600;2023-04-08T13:03:54;3.03;;;2.72;;
30543;SDS011;43388;46.308;4.600;2023-04-08T13:06:20;3.65;;;2.95;;
30543;SDS011;43388;46.308;4.600;2023-04-08T13:08:46;3.50;;;3.30;;
30543;SDS011;43388;46.308;4.600;2023-04-08T13:11:12;3.20;;;2.90;;
30543;SDS011;43388;46.308;4.600;2023-04-08T13:13:38;2.72;;;2.53;;
30543;SDS011;43388;46.308;4.600;2023-04-08T13:16:04;3.90;;;3.20;;
30543;SDS011;43388;46.308;4.600;2023-04-08T13:18:30;4.05;;;3.00;;
30543;SDS011;43388;46.308;4.600;2023-04-08T13:20:56;4.63;;;3.20;;
30543;SDS011;43388;46.308;4.600;2023-04-08T13:23:22;4.05;;;3.10;;
30543;SDS011;43388;46.308;4.600;2023-04-08T13:25:48;5.60;;;2.85;;
30543;SDS011;43388;46.308;4.600;2023-04-08T13:28:15;4.68;;;2.85;;
30543;SDS011;43388;46.308;4.600;2023-04-08T13:30:41;3.30;;;3.00;;
30543;SDS011;43388;46.308;4.600;2023-04-08T13:33:07;3.78;;;3.47;;
30543;SDS011;43388;46.308;4.600;2023-04-08T13:35:33;3.40;;;2.92;;
30543;SDS011;43388;46.308;4.600;2023-04-08T13:38:00;3.63;;;2.80;;
30543;SDS011;43388;46.308;4.600;2023-04-08T13:40:26;2.95;;;2.75;;
30543;SDS011;43388;46.308;4.600;2023-04-08T13:42:52;3.53;;;2.90;;
30543;SDS011;43388;46.308;4.600;2023-04-08T13:45:18;4.00;;;2.67;;
30543;SDS011;43388;46.308;4.600;2023-04-08T13:47:44;3.92;;;3.10;;
30543;SDS011;43388;46.308;4.600;2023-04-08T13:50:10;2.50;;;2.30;;
30543;SDS011;43388;46.308;4.600;2023-04-08T13:52:36;2.85;;;2.53;;
30543;SDS011;43388;46.308;4.600;2023-04-08T13:55:02;4.20;;;2.53;;
30543;SDS011;43388;46.308;4.600;2023-04-08T13:57:29;2.78;;;2.58;;
30543;SDS011;43388;46.308;4.600;2023-04-08T13:59:55;2.72;;;2.45;;
30543;SDS011;43388;46.308;4.600;2023-04-08T14:02:21;5.95;;;2.80;;
30543;SDS011;43388;46.308;4.600;2023-04-08T14:04:47;5.70;;;2.67;;
30543;SDS011;43388;46.308;4.600;2023-04-08T14:07:13;3.33;;;3.13;;
30543;SDS011;43388;46.308;4.600;2023-04-08T14:09:39;2.75;;;2.50;;
30543;SDS011;43388;46.308;4.600;2023-04-08T14:12:05;3.10;;;2.90;;
30543;SDS011;43388;46.308;4.600;2023-04-08T14:14:31;2.88;;;2.67;;
30543;SDS011;43388;46.308;4.600;2023-04-08T14:16:57;3.88;;;2.53;;
30543;SDS011;43388;46.308;4.600;2023-04-08T14:19:23;2.33;;;2.22;;
30543;SDS011;43388;46.308;4.600;2023-04-08T14:21:49;2.70;;;2.50;;
30543;SDS011;43388;46.308;4.600;2023-04-08T14:24:15;3.13;;;2.92;;
30543;SDS011;43388;46.308;4.600;2023-04-08T14:26:41;3.97;;;3.60;;
30543;SDS011;43388;46.308;4.600;2023-04-08T14:29:07;3.80;;;3.50;;
30543;SDS011;43388;46.308;4.600;2023-04-08T14:31:33;5.35;;;3.47;;
30543;SDS011;43388;46.308;4.600;2023-04-08T14:34:00;3.42;;;3.13;;
30543;SDS011;43388;46.308;4.600;2023-04-08T14:36:27;3.05;;;2.40;;
30543;SDS011;43388;46.308;4.600;2023-04-08T14:38:54;2.45;;;2.33;;
30543;SDS011;43388;46.308;4.600;2023-04-08T14:41:20;3.55;;;2.28;;
30543;SDS011;43388;46.308;4.600;2023-04-08T14:43:47;3.50;;;2.80;;
30543;SDS011;43388;46.308;4.600;2023-04-08T14:46:13;3.00;;;2.50;;
30543;SDS011;43388;46.308;4.600;2023-04-08T14:48:40;2.63;;;2.40;;
30543;SDS011;43388;46.308;4.600;2023-04-08T14:51:06;2.47;;;2.28;;